Station info - map view · info · telemetry · weather · raw · status · beacons · messages · bulletins · browse · moving · my account
Callsign, ship name or locator: Clear       
It is possible to search using wildcards (*?) after a prefix. Example: OH*
APRS station KD8CUN-10 - show graphs
Map loading...
Mic-E message: Off duty
Location: 43°52.26' N 86°26.27' W - locator EN63SU79LA - show map - static map
5.9 miles South bearing 173° from Ludington, Mason County, Michigan, United States [?]
9.7 miles Southwest bearing 234° from Scottville, Mason County, Michigan, United States
73.6 miles Northwest bearing 329° from Grand Rapids, Kent County, Michigan, United States
93.4 miles Northeast bearing 52° from Milwaukee, Milwaukee County, Wisconsin, United States
Last position: 2018-08-11 22:26:16 EDT (3d 12h18m ago)
2018-08-11 22:26:16 EDT local time at Ludington, United States [?]
Altitude: 728 ft
Course:
Device: Kenwood: TM-D710 (rig)
Last path: KD8CUN-10>TSUR2V via WIDE1-1,WIDE2-1,qAR,W9RCG-6 (good)
Positions stored: 1522
Packet rate: 389 seconds between packets on average during 19058 seconds.
Other SSIDs: KD8CUN KD8CUN-11 KD8CUN-5
Stations near current position of KD8CUN-10 - show more
callsign distance last heard - EDT      callsign distance last heard - EDT
KD8CUN-1129.8 yards 270°2018-07-31 18:40:50 EW14173.1 miles 16°2018-08-15 10:30:51
EW69784.9 miles 147°2018-08-15 10:34:15 N0ZQR-85.4 miles 354°2018-08-14 19:11:05
W8SDK-95.9 miles 12°2018-08-15 10:42:53 DW75006.0 miles 175°2018-08-15 10:34:52
EW90036.4 miles 3°2018-08-15 10:41:09 CALUMET10.9 miles 329°2018-08-13 10:00:24
EW385211.2 miles 7°2018-08-14 22:12:05 PRESQUE ISLE11.6 miles 263°2018-08-12 14:47:17
K8COP-414.6 miles 164°2018-08-15 10:23:39 KC0416.7 miles 161°2018-08-15 10:43:39
S S BADGER18.8 miles 296°2018-08-13 10:00:24 STEWART J CORT21.3 miles 218°2018-08-12 11:05:04
ROGER BLOUGH23.2 miles 220°2018-08-13 02:34:38 N8UKH-924.4 miles 133°2018-08-14 20:01:46
WB8BHK-925.7 miles 92°2018-07-30 20:41:11
Stations which heard KD8CUN-10 directly on radio –
callsign pkts first heard - EDT last heard longest (tx => rx) longest at - EDT
K8WNJ-1 21 2018-08-11 09:51:49 2018-08-11 17:08:17 EN63TM > EN63VF 22.4 miles 161° 2018-08-11 17:08:17
W8DF-5 28 2018-08-11 11:47:27 2018-08-11 14:40:39 EN72HI > EN72KG 12.1 miles 119° 2018-08-11 11:47:27
W9RCG-2 2 2018-08-11 19:06:07 2018-08-11 21:36:15 EN63SU > EN53WC 99.0 miles 239° 2018-08-11 21:36:15
N9LKH-1 7 2018-08-11 19:08:04 2018-08-11 21:57:34 EN63SU > EN63BB 90.6 miles 233° 2018-08-11 21:57:34
K8OEC-11 2 2018-08-11 16:10:11 2018-08-11 16:11:28 EN63XB > EN62VX 10.1 miles 226° 2018-08-11 16:11:28
K8TB-9 19 2018-08-11 10:21:21 2018-08-11 15:57:24 EN72DS > EN72EX 14.1 miles 16° 2018-08-11 11:08:37
K8OEC-10 6 2018-08-11 16:01:44 2018-08-11 16:12:05 EN73BB > EN63VB 19.0 miles 272° 2018-08-11 16:03:24
K8COP-4 28 2018-08-06 12:50:45 2018-08-11 20:46:09 EN63TW > EN63TQ 20.1 miles 174° 2018-08-06 12:50:45
K8COP-3 29 2018-08-11 09:43:53 2018-08-11 20:47:09 EN63SU > EN63TJ 32.5 miles 171° 2018-08-11 20:47:09
W9DOR-9 6 2018-08-11 17:00:55 2018-08-11 18:07:49 EN63TQ > EN64ES 94.6 miles 322° 2018-08-11 17:00:55
KB8ZXE-1 1 2018-08-11 17:36:10 2018-08-11 17:36:10 EN63SU > EN54XJ 86.0 miles 296° 2018-08-11 17:36:10
KB8ZGL-10 16 2018-08-11 10:31:01 2018-08-11 15:56:37 EN73DA > EN72DU 11.9 miles 171° 2018-08-11 15:56:37
KB9OIV-1 2 2018-08-11 21:46:12 2018-08-11 21:56:11 EN63SU > EN53XA 99.3 miles 233° 2018-08-11 21:56:11
AB9FT-2 9 2018-08-11 18:46:07 2018-08-11 21:06:09 EN63SU > EN63DQ 65.0 miles 260° 2018-08-11 21:06:09
W8VY-10 22 2018-08-11 11:22:25 2018-08-11 15:23:17 EN72JH > EN72EG 23.2 miles 262° 2018-08-11 14:25:45
K8DAA-8 10 2018-08-11 10:36:41 2018-08-11 15:46:28 EN72EN > EN72AU 25.3 miles 319° 2018-08-11 15:31:17
W9RCG-6 1 2018-08-11 22:26:16 2018-08-11 22:26:16 EN63SU > EN53SB 114.6 miles 241° 2018-08-11 22:26:16

Only position packets which were originated by the station are shown here. The range statistics show some extra long hops, because some digipeaters do not correctly add themselves to the digipeater path. Please check the raw packets.
About this site
This page shows real-time information collected from the Automatic Position Reporting System Internet network (APRS-IS). APRS is used by amateur (ham) radio operators to transmit real-time position information, weather data, telemetry and messages over the radio. A vehicle equipped with a GPS receiver, a VHF transmitter or HF transceiver and a small computer device called a tracker transmits it's location, speed and course in a small data packet, which is then received by a nearby iGate receiving site which forwards the packet on the Internet. Systems connected to the Internet can send information on the APRS-IS without a radio transmitter, or collect and display information transmitted anywhere in the world.
FAQ · Blog · Discussion group · Linking to aprs.fi · AIS sites · Service status · Database statistics · Advertising on aprs.fi · Technical details · API · Change log · Planned changes · Credits and thanks · Terms Of Service · iPhone/iPad APRS